Time;durP1;ratioP1;P1;durP2;ratioP2;P2;SDS_P1;SDS_P2;PMS_P1;PMS_P2;Temp;Humidity;BMP_temperature;BMP_pressure;BME280_temperature;BME280_humidity;BME280_pressure;Samples;Min_cycle;Max_cycle;Signal;HPM_P1;HPM_P2
2022/07/28 00:06:53;;;;;;;4.92;2.65;;;;;;;13.20;63.75;100453.62;1698760;83;25596;-67
2022/07/28 00:09:19;;;;;;;6.85;2.87;;;;;;;13.16;64.05;100451.86;1702584;83;25538;-67
2022/07/28 00:11:45;;;;;;;7.90;3.42;;;;;;;13.12;64.25;100453.64;1702578;84;25639;-67
2022/07/28 00:14:12;;;;;;;8.60;3.22;;;;;;;13.08;64.25;100455.63;1704629;83;27488;-67
2022/07/28 00:16:38;;;;;;;8.55;2.92;;;;;;;13.03;64.32;100453.65;1722730;82;25924;-68
2022/07/28 00:19:04;;;;;;;7.30;3.00;;;;;;;13.00;64.28;100463.22;1722838;83;30060;-68
2022/07/28 00:21:31;;;;;;;5.72;2.45;;;;;;;12.99;64.64;100459.47;1722715;81;25585;-68
2022/07/28 00:23:57;;;;;;;4.67;3.33;;;;;;;12.96;64.61;100460.13;1722781;83;25582;-67
2022/07/28 00:26:23;;;;;;;6.53;2.90;;;;;;;12.91;64.57;100459.73;1722749;83;28270;-67
2022/07/28 00:28:49;;;;;;;6.75;3.02;;;;;;;12.87;64.48;100465.00;1722697;83;25650;-67
2022/07/28 00:31:16;;;;;;;5.08;2.72;;;;;;;12.83;64.86;100465.38;1722854;83;25475;-68
2022/07/28 00:33:42;;;;;;;6.20;2.87;;;;;;;12.81;64.72;100477.70;1722685;83;25533;-67
2022/07/28 00:36:09;;;;;;;4.40;2.80;;;;;;;12.77;65.02;100480.25;1722761;83;25663;-68
2022/07/28 00:38:36;;;;;;;3.75;3.27;;;;;;;12.73;65.17;100477.13;1722773;83;28196;-67
2022/07/28 00:41:10;;;;;;;5.20;3.15;;;;;;;12.68;65.44;100477.54;1722749;83;25619;-68
2022/07/28 00:43:43;;;;;;;6.12;2.95;;;;;;;12.63;65.07;100476.34;1722799;83;25552;-68
2022/07/28 00:46:11;;;;;;;6.10;2.90;;;;;;;12.61;65.19;100473.69;1722712;83;27654;-68
2022/07/28 00:48:44;;;;;;;7.17;3.02;;;;;;;12.59;65.17;100475.92;1722798;83;25383;-67
2022/07/28 00:51:11;;;;;;;6.45;2.95;;;;;;;12.56;65.39;100476.55;1722794;83;28080;-67
2022/07/28 00:53:38;;;;;;;3.77;3.00;;;;;;;12.50;65.43;100481.34;1722609;83;25587;-67
2022/07/28 00:56:06;;;;;;;5.78;3.60;;;;;;;12.45;65.60;100478.22;1722738;83;25560;-67
2022/07/28 00:58:33;;;;;;;7.00;3.22;;;;;;;12.43;65.45;100480.99;1722705;83;25541;-67
2022/07/28 01:01:00;;;;;;;5.58;2.80;;;;;;;12.36;65.70;100482.02;1722757;83;25488;-68
2022/07/28 01:03:28;;;;;;;4.42;3.00;;;;;;;12.32;65.93;100478.58;1722714;83;27551;-67
2022/07/28 01:06:26;;;;;;;6.40;2.85;;;;;;;12.27;66.02;100483.36;1722623;83;25625;-67
2022/07/28 01:09:37;;;;;;;7.30;2.80;;;;;;;12.23;66.48;100487.83;1715341;83;25698;-67
2022/07/28 01:12:29;;;;;;;10.95;2.92;;;;;;;12.15;66.67;100487.47;1722708;83;25545;-67
2022/07/28 01:15:13;;;;;;;6.45;2.92;;;;;;;12.09;66.74;100486.03;1722730;83;25641;-67
2022/07/28 01:17:48;;;;;;;6.67;3.15;;;;;;;12.02;66.71;100484.34;1722792;83;27648;-67
2022/07/28 01:20:31;;;;;;;6.35;2.83;;;;;;;11.99;67.04;100490.38;1722647;83;25806;-67
2022/07/28 01:23:47;;;;;;;5.72;2.95;;;;;;;11.96;67.21;100495.07;1722809;83;25608;-67
2022/07/28 01:26:30;;;;;;;5.97;3.35;;;;;;;11.90;67.27;100490.86;1722777;83;26187;-67
2022/07/28 01:29:17;;;;;;;7.25;3.52;;;;;;;11.82;67.53;100491.08;1721945;83;25552;-67
2022/07/28 01:31:55;;;;;;;9.65;3.52;;;;;;;11.76;67.72;100490.96;1722795;83;27635;-68
2022/07/28 01:34:27;;;;;;;9.38;3.83;;;;;;;11.71;67.75;100490.56;1722662;83;25405;-66
2022/07/28 01:36:58;;;;;;;7.17;3.30;;;;;;;11.69;68.17;100488.70;1721638;83;25529;-67
2022/07/28 01:39:29;;;;;;;9.05;2.95;;;;;;;11.68;67.71;100494.42;1721963;83;25490;-67
2022/07/28 01:41:58;;;;;;;6.22;3.15;;;;;;;11.67;67.89;100494.20;1722779;83;25590;-67
2022/07/28 01:44:27;;;;;;;4.43;3.17;;;;;;;11.65;67.95;100486.94;1722975;83;27491;-67
2022/07/28 01:46:56;;;;;;;7.28;3.15;;;;;;;11.64;68.08;100488.05;1722765;83;25895;-68
2022/07/28 01:49:23;;;;;;;5.90;3.13;;;;;;;11.63;68.09;100483.19;1722920;82;25602;-65
2022/07/28 01:51:52;;;;;;;7.45;3.12;;;;;;;11.62;68.25;100491.06;1722693;83;26088;-65
2022/07/28 01:54:21;;;;;;;8.20;3.65;;;;;;;11.60;68.82;100491.93;1722840;83;25675;-65
2022/07/28 01:56:50;;;;;;;4.75;3.10;;;;;;;11.55;68.84;100486.64;1722856;83;27645;-67
2022/07/28 01:59:18;;;;;;;5.33;2.90;;;;;;;11.52;68.68;100489.97;1701171;83;25592;-67
2022/07/28 02:01:46;;;;;;;5.55;3.10;;;;;;;11.48;68.81;100484.37;1722808;83;25654;-67
2022/07/28 02:04:15;;;;;;;7.20;3.10;;;;;;;11.49;68.79;100489.23;1722839;83;27741;-67
2022/07/28 02:06:43;;;;;;;8.60;2.80;;;;;;;11.45;68.52;100493.11;1721583;83;25593;-67
2022/07/28 02:09:11;;;;;;;4.97;3.22;;;;;;;11.45;69.11;100491.76;1712579;83;27566;-67
2022/07/28 02:11:39;;;;;;;3.47;2.62;;;;;;;11.42;69.27;100498.36;1712571;83;25609;-67
2022/07/28 02:14:13;;;;;;;6.92;3.30;;;;;;;11.38;69.01;100488.70;1712493;83;25589;-67
2022/07/28 02:16:47;;;;;;;4.72;3.05;;;;;;;11.37;68.95;100493.86;1712587;83;25586;-67
2022/07/28 02:19:16;;;;;;;4.80;2.90;;;;;;;11.35;69.00;100490.66;1711130;83;25564;-67
2022/07/28 02:21:46;;;;;;;5.70;3.50;;;;;;;11.34;69.10;100487.70;1706548;83;27559;-67
2022/07/28 02:24:15;;;;;;;3.22;2.90;;;;;;;11.32;69.17;100492.62;1704964;84;25405;-67
2022/07/28 02:26:46;;;;;;;5.33;2.90;;;;;;;11.28;69.26;100493.02;1705066;84;25584;-67
2022/07/28 02:29:14;;;;;;;6.35;3.12;;;;;;;11.26;69.25;100486.55;1682627;84;25498;-67
2022/07/28 02:31:50;;;;;;;5.45;2.77;;;;;;;11.24;69.50;100486.06;1704968;84;25480;-68
2022/07/28 02:34:23;;;;;;;5.42;3.37;;;;;;;11.22;69.42;100489.64;1704239;84;27642;-68
2022/07/28 02:37:00;;;;;;;6.17;3.15;;;;;;;11.18;69.99;100489.43;1704961;84;25456;-68
2022/07/28 02:39:31;;;;;;;6.80;2.87;;;;;;;11.15;69.95;100495.48;1704933;84;25556;-67
2022/07/28 02:42:03;;;;;;;4.67;3.08;;;;;;;11.11;70.01;100496.40;1704897;84;27221;-67
2022/07/28 02:44:38;;;;;;;9.65;3.40;;;;;;;11.02;69.77;100501.19;1704572;84;25671;-67
2022/07/28 02:47:08;;;;;;;5.22;2.85;;;;;;;10.98;69.93;100506.16;1704941;84;28118;-67
2022/07/28 02:49:36;;;;;;;8.30;3.15;;;;;;;10.95;70.37;100504.87;1704894;84;25963;-67
2022/07/28 02:52:10;;;;;;;5.97;3.12;;;;;;;10.92;70.64;100503.34;1704876;84;25623;-67
2022/07/28 02:54:35;;;;;;;6.17;2.90;;;;;;;10.91;70.89;100502.52;1703558;84;25643;-67
2022/07/28 02:57:03;;;;;;;5.60;2.83;;;;;;;10.88;70.80;100508.56;1704936;84;25478;-67
2022/07/28 02:59:30;;;;;;;3.83;2.85;;;;;;;10.84;70.87;100510.27;1704899;84;27543;-67
2022/07/28 03:01:58;;;;;;;6.30;3.25;;;;;;;10.76;71.05;100499.62;1704837;84;26058;-67
2022/07/28 03:07:10;;;;;;;5.87;3.42;;;;;;;10.70;71.44;100509.52;1707824;81;25682;-66
2022/07/28 03:09:42;;;;;;;6.30;3.25;;;;;;;10.69;71.67;100511.40;1725517;83;25581;-67
2022/07/28 03:12:10;;;;;;;4.87;3.42;;;;;;;10.65;71.62;100510.42;1725362;83;27461;-67
2022/07/28 03:14:37;;;;;;;5.28;3.02;;;;;;;10.61;71.64;100507.52;1725284;83;25911;-67
2022/07/28 03:17:04;;;;;;;6.00;3.33;;;;;;;10.61;71.86;100515.63;1725339;83;25561;-67
2022/07/28 03:19:31;;;;;;;4.12;3.02;;;;;;;10.61;72.02;100516.98;1725292;83;26256;-67
2022/07/28 03:21:57;;;;;;;6.47;3.37;;;;;;;10.60;71.93;100522.14;1725393;83;25559;-67
2022/07/28 03:24:28;;;;;;;5.15;3.20;;;;;;;10.62;72.41;100526.72;1725454;83;28404;-67
2022/07/28 03:27:21;;;;;;;6.17;3.05;;;;;;;10.67;72.63;100537.95;1725270;83;25600;-68
2022/07/28 03:29:53;;;;;;;6.65;3.75;;;;;;;10.69;72.88;100541.72;1720482;83;25568;-68
2022/07/28 03:32:21;;;;;;;3.85;3.05;;;;;;;10.70;73.07;100547.39;1725323;83;25618;-67
2022/07/28 03:34:48;;;;;;;5.22;3.30;;;;;;;10.73;73.12;100550.28;1725371;83;25643;-67
2022/07/28 03:37:20;;;;;;;6.35;3.25;;;;;;;10.77;73.17;100552.62;1725334;83;28243;-67
2022/07/28 03:39:50;;;;;;;5.95;3.62;;;;;;;10.81;73.26;100548.75;1725296;83;25701;-68
2022/07/28 03:42:19;;;;;;;8.20;3.90;;;;;;;10.87;73.45;100565.70;1725333;83;25401;-67
2022/07/28 03:44:47;;;;;;;12.53;4.15;;;;;;;10.89;73.53;100562.92;1725434;83;25599;-68
2022/07/28 03:47:14;;;;;;;13.53;4.03;;;;;;;10.91;73.29;100560.70;1725382;83;25482;-67
2022/07/28 03:49:44;;;;;;;5.40;3.70;;;;;;;10.94;73.51;100562.81;1725343;83;28168;-67
2022/07/28 03:52:10;;;;;;;6.55;3.35;;;;;;;10.98;73.42;100565.17;1725240;83;25574;-67
2022/07/28 03:54:36;;;;;;;7.42;3.85;;;;;;;11.04;73.70;100567.20;1725268;83;25497;-67
2022/07/28 03:57:03;;;;;;;11.33;4.70;;;;;;;11.08;73.52;100570.89;1725308;83;25528;-67
2022/07/28 03:59:29;;;;;;;9.73;3.90;;;;;;;11.15;73.68;100571.82;1725361;83;25631;-68
2022/07/28 04:01:55;;;;;;;5.87;3.42;;;;;;;11.20;73.75;100573.88;1694699;83;27498;-67
2022/07/28 04:04:23;;;;;;;8.25;4.42;;;;;;;11.26;73.74;100571.05;1725224;83;25496;-67
2022/07/28 04:06:49;;;;;;;18.40;6.05;;;;;;;11.32;73.86;100572.52;1725323;83;25560;-67
2022/07/28 04:09:16;;;;;;;7.53;3.87;;;;;;;11.38;73.87;100568.59;1684828;83;25562;-67
2022/07/28 04:11:43;;;;;;;7.03;4.50;;;;;;;11.44;74.01;100571.44;1678966;85;25559;-67
2022/07/28 04:14:09;;;;;;;8.48;4.80;;;;;;;11.51;74.21;100563.67;1678831;85;27532;-67
2022/07/28 04:16:36;;;;;;;7.97;4.12;;;;;;;11.57;74.03;100572.46;1678797;85;25845;-67
2022/07/28 04:19:02;;;;;;;7.15;4.00;;;;;;;11.63;74.26;100565.00;1678893;85;25566;-67
2022/07/28 04:21:28;;;;;;;6.40;3.70;;;;;;;11.69;74.24;100571.91;1678888;85;25563;-67
2022/07/28 04:23:55;;;;;;;5.50;3.00;;;;;;;11.76;74.23;100574.97;1678975;85;25620;-67
2022/07/28 04:26:21;;;;;;;5.83;3.75;;;;;;;11.84;74.44;100578.30;1657500;85;28419;-68
2022/07/28 04:28:47;;;;;;;6.97;3.77;;;;;;;11.92;74.52;100574.07;1678894;85;25601;-67
2022/07/28 04:31:13;;;;;;;8.93;4.10;;;;;;;12.01;74.52;100580.33;1657426;85;25550;-68
2022/07/28 04:33:39;;;;;;;6.70;4.15;;;;;;;12.10;74.35;100584.44;1678848;85;25535;-68
2022/07/28 04:36:07;;;;;;;6.65;3.65;;;;;;;12.18;74.44;100580.97;1679004;85;25409;-67
2022/07/28 04:38:33;;;;;;;4.80;3.60;;;;;;;12.28;74.41;100583.97;1679025;85;28405;-67
2022/07/28 04:40:59;;;;;;;6.45;3.62;;;;;;;12.37;74.50;100578.57;1678975;85;25479;-67
2022/07/28 04:43:25;;;;;;;6.30;3.55;;;;;;;12.49;74.26;100592.33;1678998;85;25458;-67
2022/07/28 04:45:52;;;;;;;8.40;3.42;;;;;;;12.58;74.25;100589.64;1678970;85;25581;-67
2022/07/28 04:48:18;;;;;;;7.45;3.42;;;;;;;12.66;74.27;100584.23;1678966;85;25579;-67
2022/07/28 04:50:45;;;;;;;6.45;3.58;;;;;;;12.79;74.25;100585.80;1678894;84;27519;-67
2022/07/28 04:53:12;;;;;;;6.70;3.47;;;;;;;12.87;73.96;100588.52;1678731;85;25853;-67
2022/07/28 04:55:38;;;;;;;6.78;3.72;;;;;;;12.99;74.02;100584.36;1678916;85;25565;-67
2022/07/28 04:58:05;;;;;;;6.62;3.60;;;;;;;13.11;74.15;100583.73;1678911;85;25572;-67
2022/07/28 05:00:33;;;;;;;5.08;3.27;;;;;;;13.22;73.83;100587.17;1678968;85;25422;-68
2022/07/28 05:03:01;;;;;;;8.33;3.42;;;;;;;13.34;74.16;100593.36;1678899;84;27466;-68
2022/07/28 05:05:28;;;;;;;9.63;3.20;;;;;;;13.47;73.91;100592.16;1678830;85;25567;-68
2022/07/28 05:07:54;;;;;;;5.58;2.77;;;;;;;13.57;73.61;100587.74;1683436;83;25583;-69
2022/07/28 05:10:21;;;;;;;8.80;3.20;;;;;;;13.71;73.63;100594.39;1704827;83;26240;-67
2022/07/28 05:12:48;;;;;;;6.35;3.22;;;;;;;13.82;73.13;100592.37;1704927;83;25450;-67
2022/07/28 05:15:14;;;;;;;7.05;3.40;;;;;;;13.95;73.39;100591.12;1704825;83;27475;-67
2022/07/28 05:17:40;;;;;;;5.33;3.40;;;;;;;14.08;73.57;100592.85;1704734;83;25484;-68
2022/07/28 05:20:08;;;;;;;6.78;2.72;;;;;;;14.20;73.55;100584.80;1704808;83;25395;-67
2022/07/28 05:22:49;;;;;;;8.60;2.95;;;;;;;14.32;73.44;100586.84;1704793;83;25509;-68
2022/07/28 05:25:21;;;;;;;8.03;3.10;;;;;;;14.48;73.26;100589.00;1704947;83;25642;-67
2022/07/28 05:27:49;;;;;;;6.80;2.92;;;;;;;14.60;72.59;100584.25;1705023;83;27506;-67
2022/07/28 05:30:18;;;;;;;5.40;3.17;;;;;;;14.77;72.11;100587.44;1704889;83;25607;-68
2022/07/28 05:32:45;;;;;;;8.30;2.90;;;;;;;14.90;71.69;100595.92;1705020;83;25423;-68
2022/07/28 05:35:12;;;;;;;6.78;2.90;;;;;;;15.04;70.84;100594.30;1704937;84;25511;-68
2022/07/28 05:37:39;;;;;;;8.03;3.00;;;;;;;15.23;71.40;100600.08;1705095;83;25588;-68
2022/07/28 05:40:14;;;;;;;4.42;2.80;;;;;;;15.41;70.81;100603.47;1705008;83;28240;-68
2022/07/28 05:42:42;;;;;;;4.25;2.33;;;;;;;15.59;69.28;100603.30;1704897;83;25662;-68
2022/07/28 05:45:10;;;;;;;7.08;2.85;;;;;;;15.78;68.84;100601.46;1704982;83;25643;-68
2022/07/28 05:47:51;;;;;;;4.53;2.22;;;;;;;15.97;68.96;100605.84;1704908;83;26230;-68
2022/07/28 05:50:20;;;;;;;5.12;2.27;;;;;;;16.17;68.02;100605.52;1704992;84;25668;-66
2022/07/28 05:52:48;;;;;;;7.70;2.35;;;;;;;16.38;67.49;100605.45;1705170;83;27553;-67
2022/07/28 05:55:15;;;;;;;3.80;2.33;;;;;;;16.56;66.36;100606.00;1705182;83;25462;-68
2022/07/28 05:57:41;;;;;;;4.55;1.90;;;;;;;16.73;65.94;100613.73;1705032;83;25562;-68
2022/07/28 06:00:14;;;;;;;3.92;2.40;;;;;;;16.91;65.88;100609.66;1704958;83;25552;-68
2022/07/28 06:02:46;;;;;;;4.33;2.10;;;;;;;17.10;65.64;100615.88;1705037;83;25413;-68
2022/07/28 06:05:12;;;;;;;5.28;2.00;;;;;;;17.31;65.27;100619.01;1705008;83;27558;-68
2022/07/28 06:07:38;;;;;;;5.80;2.10;;;;;;;17.49;63.65;100618.16;1704895;83;25569;-68
2022/07/28 06:10:06;;;;;;;3.62;2.12;;;;;;;17.64;63.63;100621.52;1704870;83;25881;-68
2022/07/28 06:12:42;;;;;;;10.15;2.98;;;;;;;17.82;62.59;100626.67;1704936;83;25547;-68
2022/07/28 06:15:22;;;;;;;5.47;2.40;;;;;;;17.92;60.86;100621.50;1704991;83;25567;-68
2022/07/28 06:17:51;;;;;;;4.35;2.17;;;;;;;18.08;59.94;100625.64;1704982;83;29778;-68
2022/07/28 06:20:19;;;;;;;5.35;2.70;;;;;;;18.22;60.16;100623.84;1705000;83;32850;-68
2022/07/28 06:22:49;;;;;;;5.28;2.30;;;;;;;18.39;60.27;100619.95;1704970;83;25605;-68
2022/07/28 06:25:24;;;;;;;5.90;2.55;;;;;;;18.61;59.72;100624.55;1704938;83;25712;-67
2022/07/28 06:27:57;;;;;;;9.28;2.55;;;;;;;18.82;59.26;100620.16;1651507;86;25606;-68
2022/07/28 06:30:24;;;;;;;4.42;2.30;;;;;;;19.03;58.21;100622.05;1651520;86;27517;-69
2022/07/28 06:32:51;;;;;;;7.28;2.30;;;;;;;19.26;58.20;100615.86;1651462;86;25798;-68
2022/07/28 06:35:18;;;;;;;6.40;1.77;;;;;;;19.45;56.78;100620.55;1651478;86;25638;-68
2022/07/28 06:37:46;;;;;;;5.03;1.65;;;;;;;19.59;54.89;100620.03;1651476;86;25673;-68
2022/07/28 06:40:15;;;;;;;3.73;1.77;;;;;;;19.75;54.13;100624.08;1651795;86;25541;-68
2022/07/28 06:42:43;;;;;;;8.70;2.03;;;;;;;19.92;53.79;100631.06;1651869;86;27520;-68
2022/07/28 06:45:13;;;;;;;5.12;1.52;;;;;;;20.12;53.97;100628.48;1651426;86;25753;-68
2022/07/28 06:47:40;;;;;;;7.08;1.85;;;;;;;20.29;52.15;100629.16;1651580;86;25580;-68
2022/07/28 06:50:08;;;;;;;7.92;1.90;;;;;;;20.42;51.12;100629.19;1651475;86;25604;-67
2022/07/28 06:52:40;;;;;;;5.62;2.00;;;;;;;20.58;50.60;100635.12;1682152;84;25565;-67
2022/07/28 06:55:05;;;;;;;7.05;2.55;;;;;;;20.82;51.34;100640.81;1703803;84;27467;-67
2022/07/28 06:57:32;;;;;;;4.95;2.75;;;;;;;21.12;48.91;100640.06;1704877;83;25656;-68
2022/07/28 07:00:01;;;;;;;5.90;2.60;;;;;;;21.33;50.05;100636.78;1704906;84;25632;-69
2022/07/28 07:02:28;;;;;;;6.58;2.80;;;;;;;21.59;49.51;100635.38;1704880;83;25592;-66
2022/07/28 07:04:55;;;;;;;2.95;1.90;;;;;;;21.93;49.23;100644.17;1704929;84;25613;-67
2022/07/28 07:07:22;;;;;;;4.60;2.42;;;;;;;22.22;48.73;100643.06;1704934;83;27488;-67
2022/07/28 07:09:48;;;;;;;3.20;1.87;;;;;;;22.51;48.32;100640.80;1719194;83;26072;-67
2022/07/28 07:12:15;;;;;;;3.22;1.72;;;;;;;22.82;47.66;100643.38;1725497;83;25482;-67
2022/07/28 07:14:41;;;;;;;4.05;1.85;;;;;;;22.99;45.52;100642.69;1725336;83;26108;-67
2022/07/28 07:17:07;;;;;;;3.70;1.67;;;;;;;23.11;44.98;100649.28;1725441;83;25543;-67
2022/07/28 07:19:33;;;;;;;7.45;1.92;;;;;;;23.28;45.04;100643.66;1725384;83;27639;-67
2022/07/28 07:21:59;;;;;;;3.15;1.45;;;;;;;23.61;45.38;100641.02;1725305;83;25409;-67
2022/07/28 07:24:25;;;;;;;3.85;1.70;;;;;;;23.95;44.19;100639.35;1725396;83;25477;-67
2022/07/28 07:26:51;;;;;;;7.30;1.77;;;;;;;24.18;44.18;100642.54;1725330;83;25995;-67
2022/07/28 07:29:21;;;;;;;4.62;1.95;;;;;;;24.47;43.56;100641.16;1725380;83;25640;-67
2022/07/28 07:31:47;;;;;;;4.97;1.27;;;;;;;24.77;43.18;100640.77;1695237;83;27507;-68
2022/07/28 07:34:15;;;;;;;3.50;1.52;;;;;;;25.10;42.25;100634.55;1725256;83;25548;-68
2022/07/28 07:36:41;;;;;;;9.98;1.40;;;;;;;25.40;41.31;100641.58;1725323;83;25564;-68
2022/07/28 07:39:08;;;;;;;7.58;1.85;;;;;;;25.66;41.46;100641.66;1725419;83;25664;-68
2022/07/28 07:41:34;;;;;;;4.37;1.67;;;;;;;25.93;39.95;100639.70;1725390;83;25584;-68
2022/07/28 07:44:00;;;;;;;5.50;1.98;;;;;;;25.96;39.50;100641.69;1725376;83;27671;-68
2022/07/28 07:46:27;;;;;;;5.00;1.45;;;;;;;26.00;38.69;100640.28;1725280;83;25652;-68
2022/07/28 07:48:53;;;;;;;3.95;1.92;;;;;;;26.16;38.90;100646.72;1725342;83;25492;-68
2022/07/28 07:51:19;;;;;;;7.75;1.60;;;;;;;26.34;38.17;100643.79;1725319;83;26231;-68
2022/07/28 07:53:45;;;;;;;5.65;1.45;;;;;;;26.41;38.72;100651.46;1725302;83;25470;-68
2022/07/28 07:56:13;;;;;;;3.02;1.72;;;;;;;26.69;38.04;100650.25;1725387;83;27662;-68
2022/07/28 07:58:39;;;;;;;5.10;1.67;;;;;;;26.96;36.71;100658.70;1725264;83;25426;-68
2022/07/28 08:01:06;;;;;;;5.53;1.47;;;;;;;27.07;37.11;100654.41;1725318;83;25399;-66
2022/07/28 08:03:32;;;;;;;8.25;1.52;;;;;;;27.33;37.34;100659.30;1725471;83;26306;-67
2022/07/28 08:05:59;;;;;;;3.40;1.50;;;;;;;27.55;36.37;100654.87;1725539;83;25608;-66
2022/07/28 08:08:26;;;;;;;3.50;1.60;;;;;;;27.61;35.96;100657.95;1725390;83;28305;-68
2022/07/28 08:10:53;;;;;;;4.72;1.85;;;;;;;27.71;35.01;100656.41;1725190;83;25402;-68
2022/07/28 08:13:19;;;;;;;5.65;1.60;;;;;;;27.79;35.02;100654.91;1725360;83;25571;-68
2022/07/28 08:15:46;;;;;;;7.75;1.47;;;;;;;27.84;34.54;100663.59;1725258;83;25627;-68
2022/07/28 08:18:12;;;;;;;4.87;1.77;;;;;;;28.09;34.59;100652.12;1725419;83;25664;-68
2022/07/28 08:20:39;;;;;;;2.98;1.60;;;;;;;28.43;34.97;100660.12;1725297;83;27539;-68
2022/07/28 08:23:05;;;;;;;5.90;1.42;;;;;;;28.66;34.88;100652.41;1725244;83;25546;-68
2022/07/28 08:25:37;;;;;;;6.12;1.50;;;;;;;28.57;34.03;100652.96;1725338;83;25493;-68
2022/07/28 08:28:04;;;;;;;8.80;1.92;;;;;;;28.73;34.09;100652.88;1725310;83;25555;-68
2022/07/28 08:30:30;;;;;;;4.92;1.20;;;;;;;28.71;33.06;100649.13;1725378;83;25410;-69
2022/07/28 08:32:56;;;;;;;7.20;1.62;;;;;;;28.76;32.84;100648.64;1725314;83;27431;-67
2022/07/28 08:35:25;;;;;;;4.22;1.47;;;;;;;29.03;33.45;100649.92;1725213;83;26066;-67
2022/07/28 08:37:51;;;;;;;4.90;1.62;;;;;;;29.34;32.89;100660.86;1724634;83;25484;-67
2022/07/28 08:40:17;;;;;;;4.30;1.47;;;;;;;29.64;32.75;100653.45;1725262;83;25537;-67
2022/07/28 08:42:52;;;;;;;5.83;1.87;;;;;;;30.08;32.32;100654.06;1725467;83;25552;-67
2022/07/28 08:45:19;;;;;;;4.28;1.60;;;;;;;30.38;32.07;100643.81;1725334;83;27539;-67
2022/07/28 08:47:48;;;;;;;2.70;1.10;;;;;;;30.76;31.60;100645.22;1725253;83;25593;-67
2022/07/28 08:50:19;;;;;;;3.77;1.15;;;;;;;30.87;29.72;100652.09;1725340;83;25397;-67
2022/07/28 08:52:50;;;;;;;4.75;1.50;;;;;;;30.67;30.07;100644.46;1725408;83;25517;-67
2022/07/28 08:55:25;;;;;;;3.12;1.40;;;;;;;30.86;29.56;100643.52;1725331;83;25642;-67
2022/07/28 08:57:58;;;;;;;4.72;1.57;;;;;;;30.91;30.17;100643.61;1725322;83;27490;-67
2022/07/28 09:00:23;;;;;;;5.20;1.60;;;;;;;30.76;29.86;100648.02;1723561;83;25477;-68
2022/07/28 09:02:51;;;;;;;7.40;2.95;;;;;;;30.83;29.41;100647.81;1725342;83;25481;-67
2022/07/28 09:05:22;;;;;;;2.70;1.27;;;;;;;30.95;29.61;100654.08;1725533;83;25525;-67
2022/07/28 09:07:51;;;;;;;4.17;1.52;;;;;;;31.18;29.23;100660.66;1725354;83;25628;-67
2022/07/28 09:10:19;;;;;;;6.65;1.40;;;;;;;31.34;28.42;100655.59;1725290;83;27637;-67
2022/07/28 09:12:45;;;;;;;4.10;1.50;;;;;;;31.22;28.25;100651.55;1725487;83;25579;-67
2022/07/28 09:15:12;;;;;;;6.53;1.52;;;;;;;31.17;26.81;100645.11;1725274;83;25694;-67
2022/07/28 09:17:41;;;;;;;2.77;1.30;;;;;;;31.10;28.08;100652.45;1725230;83;25423;-67
2022/07/28 09:20:10;;;;;;;2.85;1.10;;;;;;;31.25;27.40;100653.45;1725455;83;25657;-68
2022/07/28 09:23:01;;;;;;;1.65;1.05;;;;;;;31.30;27.24;100655.70;1725321;83;28102;-67
2022/07/28 09:25:28;;;;;;;2.47;1.22;;;;;;;31.34;27.18;100654.20;1725255;83;25622;-67
2022/07/28 09:27:55;;;;;;;6.65;2.58;;;;;;;31.32;26.81;100660.23;1725338;83;25418;-67
2022/07/28 09:30:34;;;;;;;7.85;1.60;;;;;;;31.41;27.99;100665.94;1725309;83;25619;-68
2022/07/28 09:33:14;;;;;;;4.85;1.60;;;;;;;31.76;28.30;100655.56;1725310;83;25391;-66
2022/07/28 09:35:55;;;;;;;3.95;1.45;;;;;;;32.21;27.58;100657.34;1725192;83;28033;-67
2022/07/28 09:38:25;;;;;;;3.15;1.15;;;;;;;32.37;27.46;100654.40;1724222;83;25441;-67
2022/07/28 09:41:01;;;;;;;4.83;1.32;;;;;;;32.36;26.34;100657.02;1725212;83;25407;-67
2022/07/28 09:43:42;;;;;;;4.15;1.52;;;;;;;32.90;26.47;100636.98;1725324;83;25531;-67
2022/07/28 09:46:17;;;;;;;4.17;1.80;;;;;;;32.90;26.47;100636.98;1724529;83;25415;-67
2022/07/28 09:48:57;;;;;;;3.20;1.40;;;;;;;33.05;26.24;100651.26;1725314;83;27408;-67
2022/07/28 09:51:28;;;;;;;3.47;1.52;;;;;;;33.49;26.65;100654.64;1725230;83;25661;-67
2022/07/28 09:54:12;;;;;;;5.10;3.40;;;;;;;33.95;26.35;100653.48;1724759;83;25580;-67
2022/07/28 09:56:42;;;;;;;4.05;1.20;;;;;;;34.15;25.41;100652.27;1660463;86;25427;-67
2022/07/28 09:59:11;;;;;;;6.12;1.57;;;;;;;34.19;24.97;100652.89;1660560;86;25600;-67
2022/07/28 10:01:55;;;;;;;7.45;1.70;;;;;;;34.22;24.67;100651.99;1660623;86;27427;-66
2022/07/28 10:04:40;;;;;;;5.00;1.40;;;;;;;34.09;24.51;100654.91;1660483;86;25516;-66
2022/07/28 10:07:18;;;;;;;6.15;1.30;;;;;;;34.10;24.29;100646.64;1660529;86;25646;-66
2022/07/28 10:10:05;;;;;;;4.78;1.50;;;;;;;33.77;24.74;100648.58;1656896;86;25519;-66
2022/07/28 10:12:35;;;;;;;2.45;1.30;;;;;;;33.40;24.64;100656.01;1646550;87;25710;-66
2022/07/28 10:18:04;;;;;;;6.03;1.30;;;;;;;33.27;24.65;100645.67;1646627;87;25641;-66
2022/07/28 10:20:33;;;;;;;3.52;1.47;;;;;;;33.60;25.56;100643.03;1646721;87;25662;-66
2022/07/28 10:23:03;;;;;;;6.05;2.22;;;;;;;34.07;24.66;100641.95;1646695;87;25514;-67
2022/07/28 10:25:33;;;;;;;5.08;1.45;;;;;;;34.37;24.73;100649.38;1646672;87;25763;-67
2022/07/28 10:28:02;;;;;;;3.10;1.20;;;;;;;34.49;24.56;100646.27;1646596;87;27355;-67
2022/07/28 10:30:34;;;;;;;6.08;1.30;;;;;;;34.75;24.31;100650.97;1646480;87;25523;-66
2022/07/28 10:33:05;;;;;;;3.72;1.40;;;;;;;34.92;23.73;100649.42;1669791;83;25693;-67
2022/07/28 10:35:32;;;;;;;2.20;1.40;;;;;;;35.04;23.69;100644.84;1710519;83;25557;-67
2022/07/28 10:38:07;;;;;;;4.67;1.50;;;;;;;34.87;23.24;100638.81;1710834;83;25593;-67
2022/07/28 10:40:39;;;;;;;3.98;1.20;;;;;;;35.09;23.45;100632.20;1710401;83;28202;-67
2022/07/28 10:43:07;;;;;;;4.25;1.10;;;;;;;35.31;23.17;100637.00;1704687;83;25512;-67
2022/07/28 10:45:35;;;;;;;1.87;1.10;;;;;;;35.44;22.90;100641.03;1710729;83;25450;-67
2022/07/28 10:48:04;;;;;;;4.25;1.20;;;;;;;35.16;22.78;100637.48;1710535;83;25409;-67
2022/07/28 10:50:35;;;;;;;3.17;1.07;;;;;;;35.25;22.51;100643.77;1710592;83;25639;-68
2022/07/28 10:53:03;;;;;;;2.75;1.10;;;;;;;35.32;22.62;100634.99;1710678;83;27392;-68
2022/07/28 10:55:56;;;;;;;2.40;1.07;;;;;;;35.54;23.18;100641.79;1710185;82;25495;-68
2022/07/28 10:59:02;;;;;;;3.60;1.10;;;;;;;35.88;22.62;100639.16;1710400;83;25537;-68
2022/07/28 11:01:38;;;;;;;3.02;1.25;;;;;;;35.91;22.08;100638.81;1710823;83;26550;-67
2022/07/28 11:04:06;;;;;;;2.15;1.12;;;;;;;35.83;21.29;100641.84;1709655;83;25630;-67
2022/07/28 11:06:38;;;;;;;3.87;2.55;;;;;;;35.54;21.84;100636.94;1710813;83;27375;-68
2022/07/28 11:09:21;;;;;;;4.45;1.22;;;;;;;35.51;22.37;100644.91;1710553;83;25418;-68
2022/07/28 11:11:56;;;;;;;2.77;1.17;;;;;;;35.67;21.71;100636.73;1725564;83;25558;-67
2022/07/28 11:14:30;;;;;;;6.35;1.42;;;;;;;35.61;22.51;100633.00;1725551;83;25480;-67
2022/07/28 11:17:09;;;;;;;6.87;1.35;;;;;;;35.95;21.31;100638.02;1725718;83;25634;-67
2022/07/28 11:19:53;;;;;;;3.00;1.15;;;;;;;35.69;21.66;100621.56;1725703;83;26773;-67
2022/07/28 11:22:27;;;;;;;2.27;1.22;;;;;;;35.74;21.67;100632.03;1725481;83;25566;-67
2022/07/28 11:25:03;;;;;;;3.50;1.35;;;;;;;35.52;21.57;100628.84;1725549;83;25553;-68
2022/07/28 11:27:57;;;;;;;3.17;1.30;;;;;;;35.64;22.47;100629.25;1725538;83;26082;-68
2022/07/28 11:30:43;;;;;;;3.00;1.10;;;;;;;35.50;21.96;100629.31;1718970;83;25654;-68
2022/07/28 11:33:09;;;;;;;3.98;1.20;;;;;;;34.78;21.93;100631.14;1725437;83;27337;-67
2022/07/28 11:35:48;;;;;;;4.22;1.70;;;;;;;34.10;22.31;100627.63;1725341;83;25406;-67
2022/07/28 11:38:15;;;;;;;5.12;2.10;;;;;;;33.66;22.77;100631.35;1725493;83;25517;-67
2022/07/28 11:40:48;;;;;;;3.33;2.10;;;;;;;33.96;23.37;100629.00;1725307;81;25636;-67
2022/07/28 11:43:28;;;;;;;2.52;1.07;;;;;;;34.38;23.58;100627.08;1725400;83;25674;-67
2022/07/28 11:46:14;;;;;;;1.40;0.88;;;;;;;34.92;23.19;100623.33;1725426;83;27480;-67
2022/07/28 11:48:46;;;;;;;2.02;1.17;;;;;;;35.40;22.72;100626.98;1725311;83;25417;-67
2022/07/28 11:51:14;;;;;;;1.25;0.80;;;;;;;35.66;21.91;100619.70;1725380;83;25642;-68